Time;durP1;ratioP1;P1;durP2;ratioP2;P2;SDS_P1;SDS_P2;PMS_P1;PMS_P2;Temp;Humidity;BMP_temperature;BMP_pressure;BME280_temperature;BME280_humidity;BME280_pressure;Samples;Min_cycle;Max_cycle;Signal;HPM_P1;HPM_P2
2023/04/22 00:00:01;;;;;;;2.70;1.52;;;;;;;;;;5011025;28;20034;-80
2023/04/22 00:02:28;;;;;;;2.92;1.80;;;;;;;;;;5006531;28;20044;-81
2023/04/22 00:04:56;;;;;;;1.88;1.65;;;;;;;;;;5010395;28;20033;-80
2023/04/22 00:07:22;;;;;;;2.00;1.50;;;;;;;;;;5007339;28;20560;-82
2023/04/22 00:09:48;;;;;;;1.95;1.73;;;;;;;;;;5014452;28;20083;-81
2023/04/22 00:12:14;;;;;;;2.10;1.60;;;;;;;;;;5006067;28;20032;-81
2023/04/22 00:14:40;;;;;;;1.67;1.48;;;;;;;;;;5012143;28;20074;-81
2023/04/22 00:17:06;;;;;;;2.30;1.60;;;;;;;;;;5006002;28;20041;-82
2023/04/22 00:19:33;;;;;;;2.30;1.50;;;;;;;;;;5007052;28;20030;-82
2023/04/22 00:21:59;;;;;;;3.13;1.48;;;;;;;;;;5009780;28;20022;-81
2023/04/22 00:24:25;;;;;;;2.90;1.80;;;;;;;;;;5007837;28;20013;-81
2023/04/22 00:26:54;;;;;;;2.28;1.52;;;;;;;;;;5005401;28;20448;-81
2023/04/22 00:29:20;;;;;;;2.38;1.50;;;;;;;;;;5005610;28;21003;-81
2023/04/22 00:31:46;;;;;;;2.42;1.55;;;;;;;;;;5004197;28;20578;-82
2023/04/22 00:34:12;;;;;;;3.88;1.42;;;;;;;;;;5004478;28;20189;-82
2023/04/22 00:36:38;;;;;;;3.15;1.48;;;;;;;;;;5006949;28;20030;-82
2023/04/22 00:39:05;;;;;;;1.80;1.70;;;;;;;;;;5009696;28;20042;-83
2023/04/22 00:41:31;;;;;;;2.97;1.67;;;;;;;;;;5004623;28;20037;-82
2023/04/22 00:43:58;;;;;;;1.45;1.25;;;;;;;;;;5005886;28;20034;-82
2023/04/22 00:46:24;;;;;;;1.40;1.30;;;;;;;;;;5011602;28;20392;-82
2023/04/22 00:48:50;;;;;;;3.75;1.40;;;;;;;;;;5002379;28;20083;-82
2023/04/22 00:51:16;;;;;;;2.55;1.63;;;;;;;;;;5004279;28;20081;-82
2023/04/22 00:53:42;;;;;;;2.25;1.52;;;;;;;;;;5010611;28;20022;-82
2023/04/22 00:56:08;;;;;;;2.97;1.85;;;;;;;;;;5011798;28;20025;-82
2023/04/22 00:58:34;;;;;;;2.17;1.60;;;;;;;;;;5010051;28;20602;-82
2023/04/22 01:01:00;;;;;;;3.95;1.80;;;;;;;;;;5011827;28;20033;-81
2023/04/22 01:03:29;;;;;;;3.20;1.70;;;;;;;;;;5008018;28;20030;-82
2023/04/22 01:05:55;;;;;;;1.75;1.48;;;;;;;;;;5001607;28;20037;-81
2023/04/22 01:08:21;;;;;;;2.13;1.27;;;;;;;;;;5004769;28;20040;-82
2023/04/22 01:10:47;;;;;;;2.90;1.60;;;;;;;;;;5012662;28;20025;-82
2023/04/22 01:13:13;;;;;;;2.88;1.85;;;;;;;;;;5008014;28;20481;-82
2023/04/22 01:15:39;;;;;;;1.95;1.40;;;;;;;;;;5011759;28;20389;-82
2023/04/22 01:18:05;;;;;;;1.33;1.23;;;;;;;;;;5017772;28;20041;-82
2023/04/22 01:20:31;;;;;;;4.10;1.75;;;;;;;;;;5008439;28;20060;-82
2023/04/22 01:22:58;;;;;;;2.47;1.42;;;;;;;;;;5015329;28;20433;-82
2023/04/22 01:25:24;;;;;;;1.80;1.40;;;;;;;;;;5013387;28;20030;-82
2023/04/22 01:27:50;;;;;;;2.65;1.63;;;;;;;;;;5004652;28;20048;-82
2023/04/22 01:30:16;;;;;;;3.78;1.92;;;;;;;;;;5009083;28;20022;-82
2023/04/22 01:32:42;;;;;;;2.90;1.75;;;;;;;;;;5002851;28;20022;-82
2023/04/22 01:35:09;;;;;;;1.60;1.42;;;;;;;;;;5010033;28;20022;-82
2023/04/22 01:37:35;;;;;;;2.05;1.35;;;;;;;;;;5003437;28;20089;-82
2023/04/22 01:40:02;;;;;;;1.90;1.33;;;;;;;;;;5010334;28;20034;-82
2023/04/22 01:42:28;;;;;;;2.78;1.65;;;;;;;;;;5009883;28;20124;-82
2023/04/22 01:44:54;;;;;;;2.97;1.35;;;;;;;;;;5013221;28;20622;-82
2023/04/22 01:47:20;;;;;;;4.88;1.77;;;;;;;;;;5009747;28;20037;-82
2023/04/22 01:49:46;;;;;;;1.75;1.48;;;;;;;;;;5015652;28;20107;-81
2023/04/22 01:52:12;;;;;;;3.03;1.80;;;;;;;;;;5018679;28;20033;-81
2023/04/22 01:54:38;;;;;;;3.28;1.80;;;;;;;;;;5009535;28;20044;-82
2023/04/22 01:57:09;;;;;;;1.58;1.38;;;;;;;;;;5017873;28;20264;-82
2023/04/22 01:59:35;;;;;;;2.10;1.55;;;;;;;;;;5006912;28;20104;-82
2023/04/22 02:02:01;;;;;;;1.98;1.42;;;;;;;;;;5004678;28;20014;-82
2023/04/22 02:04:27;;;;;;;2.40;1.60;;;;;;;;;;5011886;28;20223;-82
2023/04/22 02:06:53;;;;;;;2.10;1.40;;;;;;;;;;5014806;28;20412;-82
2023/04/22 02:09:19;;;;;;;2.28;1.52;;;;;;;;;;5003669;28;20064;-82
2023/04/22 02:11:45;;;;;;;2.65;1.60;;;;;;;;;;5006162;28;20026;-82
2023/04/22 02:14:11;;;;;;;1.60;1.20;;;;;;;;;;5008020;28;20030;-81
2023/04/22 02:16:37;;;;;;;1.52;1.42;;;;;;;;;;5014676;28;20053;-81
2023/04/22 02:19:03;;;;;;;1.95;1.38;;;;;;;;;;5004578;28;20033;-82
2023/04/22 02:21:31;;;;;;;1.70;1.30;;;;;;;;;;5004654;28;20413;-81
2023/04/22 02:23:57;;;;;;;2.80;1.48;;;;;;;;;;5010391;28;20116;-82
2023/04/22 02:26:24;;;;;;;2.88;1.58;;;;;;;;;;5003347;28;20041;-81
2023/04/22 02:28:50;;;;;;;2.00;1.48;;;;;;;;;;5004404;28;20034;-82
2023/04/22 02:31:16;;;;;;;2.33;1.38;;;;;;;;;;5004572;28;20097;-81
2023/04/22 02:33:42;;;;;;;1.38;1.20;;;;;;;;;;5002858;28;20033;-82
2023/04/22 02:36:08;;;;;;;2.72;1.50;;;;;;;;;;5005643;28;20013;-82
2023/04/22 02:38:34;;;;;;;1.95;1.52;;;;;;;;;;5006714;28;21880;-82
2023/04/22 02:41:00;;;;;;;2.80;1.60;;;;;;;;;;5003228;28;20033;-82
2023/04/22 02:43:26;;;;;;;2.28;1.50;;;;;;;;;;5001219;28;20045;-81
2023/04/22 02:45:52;;;;;;;2.08;1.50;;;;;;;;;;5003168;28;20036;-82
2023/04/22 02:48:18;;;;;;;1.83;1.42;;;;;;;;;;5007848;28;20046;-81
2023/04/22 02:50:44;;;;;;;1.95;1.77;;;;;;;;;;5006972;28;20358;-82
2023/04/22 02:53:10;;;;;;;3.13;1.58;;;;;;;;;;5002948;28;20020;-82
2023/04/22 02:55:36;;;;;;;3.15;1.88;;;;;;;;;;5005958;28;20025;-82
2023/04/22 02:58:02;;;;;;;2.72;1.60;;;;;;;;;;5005501;28;20499;-82
2023/04/22 03:00:29;;;;;;;1.95;1.40;;;;;;;;;;5005587;28;20029;-82
2023/04/22 03:02:54;;;;;;;3.13;1.80;;;;;;;;;;5002981;28;20029;-82
2023/04/22 03:05:21;;;;;;;1.33;1.23;;;;;;;;;;5007008;28;20052;-82
2023/04/22 03:07:48;;;;;;;2.97;1.40;;;;;;;;;;4996133;28;20056;-82
2023/04/22 03:10:14;;;;;;;1.92;1.40;;;;;;;;;;5003317;28;20501;-82
2023/04/22 03:12:40;;;;;;;2.58;1.70;;;;;;;;;;5005689;28;20040;-81
2023/04/22 03:15:06;;;;;;;2.05;1.60;;;;;;;;;;5002321;28;20374;-82
2023/04/22 03:17:33;;;;;;;2.47;1.70;;;;;;;;;;5006472;28;20080;-82
2023/04/22 03:19:59;;;;;;;1.75;1.63;;;;;;;;;;5001226;28;20030;-82
2023/04/22 03:22:25;;;;;;;1.80;1.45;;;;;;;;;;5005356;28;20037;-82
2023/04/22 03:24:51;;;;;;;2.05;1.50;;;;;;;;;;5009308;28;20591;-82
2023/04/22 03:27:20;;;;;;;1.65;1.20;;;;;;;;;;5002963;28;20025;-82
2023/04/22 03:29:46;;;;;;;2.63;1.50;;;;;;;;;;5002205;28;20045;-81
2023/04/22 03:32:15;;;;;;;1.70;1.25;;;;;;;;;;5000280;28;20033;-82
2023/04/22 03:34:41;;;;;;;2.55;1.45;;;;;;;;;;5011084;28;20503;-82
2023/04/22 03:37:07;;;;;;;5.68;1.80;;;;;;;;;;5002731;28;20030;-79
2023/04/22 03:39:33;;;;;;;2.17;1.35;;;;;;;;;;4996826;28;20034;-80
2023/04/22 03:42:00;;;;;;;3.55;1.63;;;;;;;;;;4998110;28;20022;-83
2023/04/22 03:44:26;;;;;;;2.28;1.58;;;;;;;;;;5004961;28;20121;-84
2023/04/22 03:46:52;;;;;;;3.47;1.75;;;;;;;;;;5001946;28;20021;-84
2023/04/22 03:49:18;;;;;;;3.10;1.73;;;;;;;;;;5003847;28;20500;-84
2023/04/22 03:51:44;;;;;;;1.92;1.40;;;;;;;;;;5002126;28;20144;-84
2023/04/22 03:54:10;;;;;;;3.30;1.17;;;;;;;;;;5001110;28;20022;-84
2023/04/22 03:56:36;;;;;;;2.72;1.30;;;;;;;;;;5001117;28;20057;-84
2023/04/22 03:59:02;;;;;;;2.90;1.65;;;;;;;;;;5002596;28;20063;-84
2023/04/22 04:01:28;;;;;;;1.70;1.10;;;;;;;;;;5000559;28;20266;-84
2023/04/22 04:03:54;;;;;;;1.67;1.42;;;;;;;;;;5002428;28;20041;-84
2023/04/22 04:06:20;;;;;;;2.35;1.60;;;;;;;;;;5010278;28;20044;-83
2023/04/22 04:08:46;;;;;;;4.05;1.35;;;;;;;;;;5006509;28;20037;-83
2023/04/22 04:11:12;;;;;;;2.13;1.67;;;;;;;;;;5005031;28;20033;-84
2023/04/22 04:13:38;;;;;;;1.38;1.23;;;;;;;;;;5003622;28;20042;-84
2023/04/22 04:16:04;;;;;;;3.05;1.77;;;;;;;;;;5000406;28;20034;-84
2023/04/22 04:18:31;;;;;;;2.63;1.80;;;;;;;;;;5006575;28;20114;-83
2023/04/22 04:20:57;;;;;;;3.05;1.63;;;;;;;;;;5007674;28;20044;-84
2023/04/22 04:23:23;;;;;;;1.73;1.30;;;;;;;;;;5000540;28;20038;-84
2023/04/22 04:25:49;;;;;;;3.22;1.77;;;;;;;;;;5002821;28;20034;-84
2023/04/22 04:28:16;;;;;;;3.35;1.70;;;;;;;;;;5004021;28;20029;-85
2023/04/22 04:30:42;;;;;;;2.75;1.60;;;;;;;;;;4999298;28;20113;-84
2023/04/22 04:33:08;;;;;;;1.70;1.50;;;;;;;;;;4999806;28;20025;-84
2023/04/22 04:35:36;;;;;;;2.17;1.50;;;;;;;;;;5006699;28;20036;-84
2023/04/22 04:38:02;;;;;;;2.90;1.75;;;;;;;;;;5008720;28;20033;-84
2023/04/22 04:40:28;;;;;;;1.90;1.50;;;;;;;;;;5006909;28;20132;-84
2023/04/22 04:42:56;;;;;;;2.15;1.80;;;;;;;;;;5008056;28;20029;-84
2023/04/22 04:45:22;;;;;;;1.90;1.65;;;;;;;;;;5006881;28;20511;-83
2023/04/22 04:47:54;;;;;;;2.28;1.60;;;;;;;;;;5004673;28;20129;-84
2023/04/22 04:50:20;;;;;;;1.92;1.48;;;;;;;;;;5009431;28;20041;-85
2023/04/22 04:52:47;;;;;;;2.97;1.55;;;;;;;;;;5004170;28;20388;-84
2023/04/22 04:55:13;;;;;;;2.97;1.63;;;;;;;;;;5008985;28;20141;-84
2023/04/22 04:57:40;;;;;;;2.20;1.50;;;;;;;;;;5003025;28;21434;-84
2023/04/22 05:00:07;;;;;;;1.98;1.58;;;;;;;;;;5010425;28;20091;-84
2023/04/22 05:02:33;;;;;;;1.83;1.40;;;;;;;;;;5009755;28;20025;-84
2023/04/22 05:05:01;;;;;;;2.40;1.50;;;;;;;;;;5012507;28;20499;-84
2023/04/22 05:07:30;;;;;;;1.73;1.40;;;;;;;;;;5008283;28;20029;-84
2023/04/22 05:09:56;;;;;;;1.88;1.42;;;;;;;;;;5002130;28;20037;-84
2023/04/22 05:12:22;;;;;;;5.68;1.75;;;;;;;;;;5012190;28;20080;-84
2023/04/22 05:14:48;;;;;;;1.52;1.30;;;;;;;;;;5001884;28;20026;-84
2023/04/22 05:17:14;;;;;;;2.13;1.40;;;;;;;;;;5007772;28;20042;-84
2023/04/22 05:19:40;;;;;;;2.10;1.50;;;;;;;;;;5008299;28;20069;-84
2023/04/22 05:22:06;;;;;;;3.65;1.95;;;;;;;;;;5009172;28;20030;-83
2023/04/22 05:24:33;;;;;;;2.47;1.60;;;;;;;;;;5010725;28;20029;-85
2023/04/22 05:26:59;;;;;;;3.78;1.90;;;;;;;;;;5010517;28;20550;-85
2023/04/22 05:29:25;;;;;;;1.45;1.33;;;;;;;;;;5003544;28;20044;-84
2023/04/22 05:31:54;;;;;;;2.15;1.65;;;;;;;;;;5008528;28;20025;-85
2023/04/22 05:34:20;;;;;;;1.75;1.52;;;;;;;;;;5005374;28;20033;-85
2023/04/22 05:36:45;;;;;;;2.58;1.67;;;;;;;;;;5008028;28;20507;-84
2023/04/22 05:39:11;;;;;;;3.25;1.45;;;;;;;;;;4998713;28;20626;-84
2023/04/22 05:41:37;;;;;;;3.78;2.25;;;;;;;;;;5004814;28;20377;-83
2023/04/22 05:44:03;;;;;;;5.07;1.73;;;;;;;;;;5003539;28;20036;-84
2023/04/22 05:46:30;;;;;;;5.10;2.22;;;;;;;;;;5000947;28;20033;-84
2023/04/22 05:48:56;;;;;;;2.78;1.95;;;;;;;;;;5003777;28;20219;-81
2023/04/22 05:51:22;;;;;;;2.33;1.42;;;;;;;;;;5004318;28;20484;-81
2023/04/22 05:53:48;;;;;;;4.18;1.40;;;;;;;;;;5005407;28;20492;-84
2023/04/22 05:56:14;;;;;;;2.00;1.40;;;;;;;;;;5003305;28;20087;-84
2023/04/22 05:58:40;;;;;;;2.42;1.60;;;;;;;;;;5006714;28;20484;-85
2023/04/22 06:01:07;;;;;;;2.65;1.85;;;;;;;;;;4997428;28;20053;-84
2023/04/22 06:03:36;;;;;;;2.60;1.40;;;;;;;;;;5005646;28;20060;-84
2023/04/22 06:06:02;;;;;;;2.03;1.45;;;;;;;;;;5006094;28;20032;-84
2023/04/22 06:08:29;;;;;;;2.53;1.70;;;;;;;;;;5005679;28;20128;-85
2023/04/22 06:10:55;;;;;;;2.30;1.33;;;;;;;;;;5002527;28;20025;-85
2023/04/22 06:13:21;;;;;;;5.68;2.22;;;;;;;;;;4998212;28;20128;-85
2023/04/22 06:15:47;;;;;;;2.05;1.67;;;;;;;;;;5007679;28;20018;-85
2023/04/22 06:18:13;;;;;;;2.38;1.70;;;;;;;;;;5003288;28;20431;-85
2023/04/22 06:20:39;;;;;;;2.35;1.85;;;;;;;;;;5005958;28;21690;-84
2023/04/22 06:23:05;;;;;;;2.35;1.65;;;;;;;;;;5005081;28;20033;-84
2023/04/22 06:25:31;;;;;;;2.03;1.60;;;;;;;;;;5002398;28;20033;-84
2023/04/22 06:27:58;;;;;;;2.55;1.70;;;;;;;;;;5005259;28;20075;-83
2023/04/22 06:30:24;;;;;;;2.40;1.55;;;;;;;;;;5002495;28;20365;-84
2023/04/22 06:32:51;;;;;;;2.08;1.65;;;;;;;;;;5006001;28;20444;-76
2023/04/22 06:35:17;;;;;;;3.35;1.73;;;;;;;;;;5009279;28;20060;-80
2023/04/22 06:37:43;;;;;;;5.80;2.08;;;;;;;;;;5004684;28;20034;-81
2023/04/22 06:40:10;;;;;;;2.28;1.42;;;;;;;;;;5002470;28;20030;-82
2023/04/22 06:42:38;;;;;;;8.20;1.48;;;;;;;;;;5005578;28;20431;-80
2023/04/22 06:45:05;;;;;;;2.17;1.48;;;;;;;;;;5005542;28;20893;-81
2023/04/22 06:47:31;;;;;;;8.05;1.80;;;;;;;;;;5003890;28;20045;-81
2023/04/22 06:49:57;;;;;;;2.60;1.73;;;;;;;;;;5010309;28;20041;-81
2023/04/22 06:52:23;;;;;;;2.30;1.70;;;;;;;;;;5003896;28;20096;-81
2023/04/22 06:54:49;;;;;;;3.05;2.08;;;;;;;;;;5015684;28;20026;-81
2023/04/22 06:57:15;;;;;;;1.60;1.50;;;;;;;;;;5002077;28;20336;-81
2023/04/22 06:59:41;;;;;;;3.10;1.88;;;;;;;;;;5005037;28;20025;-81
2023/04/22 07:02:07;;;;;;;6.32;2.10;;;;;;;;;;5008585;28;20041;-81
2023/04/22 07:04:32;;;;;;;7.40;1.90;;;;;;;;;;5012253;28;20145;-81
2023/04/22 07:06:58;;;;;;;3.08;1.95;;;;;;;;;;5003294;28;20088;-81
2023/04/22 07:09:28;;;;;;;2.28;1.95;;;;;;;;;;5010707;28;20410;-81
2023/04/22 07:11:54;;;;;;;3.50;1.80;;;;;;;;;;5011832;28;20022;-81
2023/04/22 07:14:20;;;;;;;4.43;1.95;;;;;;;;;;5004134;28;20029;-81
2023/04/22 07:16:48;;;;;;;2.20;1.50;;;;;;;;;;5007302;28;20049;-81
2023/04/22 07:19:14;;;;;;;4.60;1.60;;;;;;;;;;5001976;28;20036;-81
2023/04/22 07:21:40;;;;;;;3.67;1.88;;;;;;;;;;5000745;28;20041;-81
2023/04/22 07:24:10;;;;;;;3.05;1.73;;;;;;;;;;5011422;28;20038;-81
2023/04/22 07:26:37;;;;;;;3.63;1.83;;;;;;;;;;5012112;28;20053;-82
2023/04/22 07:29:03;;;;;;;3.83;2.00;;;;;;;;;;5009986;28;20033;-84
2023/04/22 07:31:29;;;;;;;1.83;1.38;;;;;;;;;;5004461;28;20450;-82
2023/04/22 07:33:55;;;;;;;2.22;1.60;;;;;;;;;;5009649;28;20017;-83
2023/04/22 07:36:20;;;;;;;2.75;1.95;;;;;;;;;;5015814;28;20018;-81
2023/04/22 07:38:46;;;;;;;2.22;1.60;;;;;;;;;;5006355;28;20034;-80
2023/04/22 07:41:13;;;;;;;2.95;1.80;;;;;;;;;;5002884;28;20137;-80
2023/04/22 07:43:38;;;;;;;3.20;1.60;;;;;;;;;;5012624;28;20018;-79
2023/04/22 07:46:05;;;;;;;2.38;1.52;;;;;;;;;;5007423;28;20548;-78
2023/04/22 07:48:31;;;;;;;2.33;1.75;;;;;;;;;;5010520;28;20034;-78
2023/04/22 07:50:57;;;;;;;3.03;2.10;;;;;;;;;;5005702;28;20034;-79
2023/04/22 07:53:23;;;;;;;2.50;1.90;;;;;;;;;;5015480;28;20049;-78
2023/04/22 07:55:49;;;;;;;4.10;2.13;;;;;;;;;;5009187;28;20511;-78
2023/04/22 07:58:15;;;;;;;2.30;1.90;;;;;;;;;;5002221;28;20030;-79
2023/04/22 08:00:41;;;;;;;6.85;2.10;;;;;;;;;;5009058;28;20034;-83
2023/04/22 08:03:07;;;;;;;2.67;1.95;;;;;;;;;;5011408;28;20508;-81
2023/04/22 08:05:33;;;;;;;2.63;2.08;;;;;;;;;;5006774;28;20029;-79
2023/04/22 08:07:59;;;;;;;5.75;1.85;;;;;;;;;;5011300;28;20037;-81
2023/04/22 08:10:25;;;;;;;3.40;1.80;;;;;;;;;;5014349;28;20057;-79
2023/04/22 08:12:51;;;;;;;3.70;1.88;;;;;;;;;;5009949;28;20030;-80
2023/04/22 08:15:18;;;;;;;3.60;2.17;;;;;;;;;;5007394;28;20026;-80
2023/04/22 08:17:44;;;;;;;2.30;2.03;;;;;;;;;;5006673;28;20046;-79
2023/04/22 08:20:10;;;;;;;4.00;2.28;;;;;;;;;;5014547;28;20567;-82
2023/04/22 08:22:37;;;;;;;4.28;2.45;;;;;;;;;;5008725;28;20037;-80
2023/04/22 08:25:03;;;;;;;3.10;2.00;;;;;;;;;;5010759;28;20571;-80
2023/04/22 08:27:29;;;;;;;3.38;2.17;;;;;;;;;;5019213;28;20030;-80
2023/04/22 08:29:55;;;;;;;10.05;2.35;;;;;;;;;;5014003;28;20017;-79
2023/04/22 08:32:25;;;;;;;4.15;2.40;;;;;;;;;;5009659;28;20365;-81
2023/04/22 08:34:50;;;;;;;5.13;2.47;;;;;;;;;;5012789;28;20125;-80
2023/04/22 08:37:17;;;;;;;2.95;2.40;;;;;;;;;;5016695;28;20032;-80
2023/04/22 08:39:43;;;;;;;4.18;2.28;;;;;;;;;;5018547;28;20037;-80
2023/04/22 08:42:09;;;;;;;3.85;2.50;;;;;;;;;;5022346;28;20095;-81
2023/04/22 08:44:36;;;;;;;3.53;2.22;;;;;;;;;;5013478;28;20040;-81
2023/04/22 08:47:02;;;;;;;5.57;2.78;;;;;;;;;;5008552;28;20061;-79
2023/04/22 08:49:29;;;;;;;3.30;2.00;;;;;;;;;;5008607;28;20025;-81
2023/04/22 08:51:58;;;;;;;2.85;2.22;;;;;;;;;;5007356;28;20096;-79
2023/04/22 08:54:24;;;;;;;4.13;2.17;;;;;;;;;;5013855;28;20017;-80
2023/04/22 08:56:53;;;;;;;4.28;2.40;;;;;;;;;;5014281;28;20036;-80
2023/04/22 08:59:22;;;;;;;3.70;2.58;;;;;;;;;;5007593;28;20038;-80
2023/04/22 09:01:52;;;;;;;4.72;1.83;;;;;;;;;;5013820;28;20175;-79
2023/04/22 09:04:18;;;;;;;3.70;2.20;;;;;;;;;;5009914;28;20503;-78
2023/04/22 09:06:44;;;;;;;3.50;2.40;;;;;;;;;;5012619;28;20037;-81
2023/04/22 09:09:10;;;;;;;3.33;2.17;;;;;;;;;;5009829;28;20036;-76
2023/04/22 09:11:36;;;;;;;3.92;2.35;;;;;;;;;;5018170;28;20098;-76
2023/04/22 09:14:06;;;;;;;3.65;2.28;;;;;;;;;;5017629;28;20041;-76
2023/04/22 09:16:33;;;;;;;2.65;2.13;;;;;;;;;;5013079;28;20515;-77
2023/04/22 09:19:00;;;;;;;3.53;1.90;;;;;;;;;;5015179;28;20037;-77
2023/04/22 09:21:26;;;;;;;3.70;2.22;;;;;;;;;;5004326;28;20038;-76
2023/04/22 09:23:53;;;;;;;2.42;1.80;;;;;;;;;;5011704;28;20036;-76
2023/04/22 09:26:20;;;;;;;3.50;2.05;;;;;;;;;;5015104;28;20050;-76
2023/04/22 09:28:49;;;;;;;2.08;1.80;;;;;;;;;;5007975;28;20026;-77
2023/04/22 09:31:15;;;;;;;2.22;2.03;;;;;;;;;;5009846;28;20033;-77
2023/04/22 09:33:41;;;;;;;2.70;2.00;;;;;;;;;;5012903;28;20030;-76
2023/04/22 09:36:10;;;;;;;2.83;1.67;;;;;;;;;;5007953;28;20041;-76
2023/04/22 09:38:36;;;;;;;4.60;2.78;;;;;;;;;;5010576;28;20404;-77
2023/04/22 09:41:08;;;;;;;3.72;2.20;;;;;;;;;;5009436;28;20032;-77
2023/04/22 09:43:34;;;;;;;3.22;1.75;;;;;;;;;;5011977;28;20088;-76
2023/04/22 09:46:00;;;;;;;4.25;2.20;;;;;;;;;;5007444;28;20037;-77
2023/04/22 09:48:26;;;;;;;3.78;1.80;;;;;;;;;;5015936;28;20037;-76
2023/04/22 09:50:52;;;;;;;4.07;2.25;;;;;;;;;;5009855;28;20505;-77
2023/04/22 09:53:19;;;;;;;3.45;2.28;;;;;;;;;;5005373;28;20050;-76
2023/04/22 09:55:46;;;;;;;3.65;1.85;;;;;;;;;;5002978;28;20038;-77
2023/04/22 09:58:14;;;;;;;2.53;1.85;;;;;;;;;;5009287;28;20381;-83
2023/04/22 10:00:41;;;;;;;3.55;2.20;;;;;;;;;;5006950;28;20084;-85
2023/04/22 10:03:07;;;;;;;2.53;1.85;;;;;;;;;;5009109;28;20098;-88
2023/04/22 10:05:36;;;;;;;3.22;2.20;;;;;;;;;;5005346;28;20167;-82
2023/04/22 10:08:02;;;;;;;3.13;1.92;;;;;;;;;;5009963;28;20057;-85
2023/04/22 10:10:29;;;;;;;3.65;1.90;;;;;;;;;;5010927;28;20087;-80
2023/04/22 10:12:55;;;;;;;6.97;2.35;;;;;;;;;;5004763;28;20025;-78
2023/04/22 10:15:21;;;;;;;3.75;2.33;;;;;;;;;;5005644;28;20104;-76
2023/04/22 10:17:47;;;;;;;6.55;2.90;;;;;;;;;;4981334;28;999904;-79
2023/04/22 10:20:15;;;;;;;3.90;2.38;;;;;;;;;;5020540;28;20521;-77
2023/04/22 10:22:42;;;;;;;3.78;2.20;;;;;;;;;;5011069;28;20122;-79
2023/04/22 10:25:12;;;;;;;2.58;1.88;;;;;;;;;;5010304;28;20104;-78
2023/04/22 10:27:38;;;;;;;3.92;2.58;;;;;;;;;;5008596;28;20026;-81
2023/04/22 10:30:04;;;;;;;4.13;2.28;;;;;;;;;;5009045;28;20495;-82
2023/04/22 10:32:32;;;;;;;4.43;2.75;;;;;;;;;;5009148;28;20037;-79
2023/04/22 10:35:08;;;;;;;4.45;2.58;;;;;;;;;;5012954;28;20017;-79
2023/04/22 10:37:34;;;;;;;4.05;2.42;;;;;;;;;;5009078;28;20033;-74
2023/04/22 10:40:08;;;;;;;3.97;2.50;;;;;;;;;;5006262;28;20025;-75
2023/04/22 10:42:35;;;;;;;5.43;2.65;;;;;;;;;;5012283;28;20034;-74
2023/04/22 10:45:01;;;;;;;2.67;2.15;;;;;;;;;;5005144;28;20137;-75
2023/04/22 10:47:32;;;;;;;5.70;2.25;;;;;;;;;;5014082;28;20141;-75
2023/04/22 10:50:13;;;;;;;3.80;2.17;;;;;;;;;;5010105;28;20022;-75
2023/04/22 10:52:40;;;;;;;2.85;2.20;;;;;;;;;;5014582;28;20029;-76
2023/04/22 10:55:06;;;;;;;4.55;2.30;;;;;;;;;;5008562;28;20041;-75
2023/04/22 10:57:37;;;;;;;3.20;2.28;;;;;;;;;;5008409;28;20052;-76
2023/04/22 11:00:23;;;;;;;5.28;2.13;;;;;;;;;;5000844;28;20412;-76
2023/04/22 11:02:54;;;;;;;3.25;2.13;;;;;;;;;;5012917;28;20041;-76
2023/04/22 11:05:22;;;;;;;2.27;1.70;;;;;;;;;;5008165;28;20025;-76
2023/04/22 11:07:48;;;;;;;4.85;2.38;;;;;;;;;;5002281;28;20835;-76
2023/04/22 11:10:30;;;;;;;4.30;2.53;;;;;;;;;;5001514;28;20068;-78
2023/04/22 11:12:56;;;;;;;;;;;;;;;;;;5009258;28;20032;-78
2023/04/22 11:15:22;;;;;;;4.50;2.33;;;;;;;;;;5009705;28;19932;-77
2023/04/22 11:17:51;;;;;;;3.95;2.00;;;;;;;;;;5003304;28;20050;-77
2023/04/22 11:20:18;;;;;;;5.13;2.67;;;;;;;;;;5006958;28;20030;-77
2023/04/22 11:22:45;;;;;;;3.78;2.30;;;;;;;;;;5005135;28;20131;-77
2023/04/22 11:25:11;;;;;;;3.92;2.88;;;;;;;;;;5002569;28;20048;-77
2023/04/22 11:27:38;;;;;;;4.82;3.10;;;;;;;;;;5008329;28;20065;-77
2023/04/22 11:30:23;;;;;;;5.30;3.17;;;;;;;;;;5004545;28;20034;-78
2023/04/22 11:32:50;;;;;;;5.05;2.90;;;;;;;;;;5012351;28;20075;-78
2023/04/22 11:35:29;;;;;;;4.55;2.67;;;;;;;;;;5007238;28;20026;-77
2023/04/22 11:37:56;;;;;;;6.43;2.83;;;;;;;;;;5007051;28;20025;-80
2023/04/22 11:40:24;;;;;;;4.47;3.08;;;;;;;;;;5013561;28;20038;-78
2023/04/22 11:42:50;;;;;;;4.25;2.90;;;;;;;;;;5014710;28;20167;-79
2023/04/22 11:45:17;;;;;;;5.22;3.10;;;;;;;;;;5012733;28;20053;-78
2023/04/22 11:47:46;;;;;;;6.95;3.05;;;;;;;;;;5011196;28;20067;-78
2023/04/22 11:50:13;;;;;;;4.82;2.97;;;;;;;;;;5009601;28;20018;-78
2023/04/22 11:52:44;;;;;;;3.47;2.72;;;;;;;;;;5004851;28;20038;-78
2023/04/22 11:55:10;;;;;;;5.75;2.70;;;;;;;;;;5007319;28;20063;-78
2023/04/22 11:57:37;;;;;;;3.88;2.70;;;;;;;;;;5015353;28;20151;-78
2023/04/22 12:00:03;;;;;;;4.22;2.45;;;;;;;;;;5014686;28;20101;-78
2023/04/22 12:02:29;;;;;;;7.15;2.45;;;;;;;;;;5000090;28;20496;-78
2023/04/22 12:04:57;;;;;;;4.22;2.60;;;;;;;;;;5005129;28;20037;-78
2023/04/22 12:07:23;;;;;;;5.10;2.90;;;;;;;;;;5005207;28;20087;-78
2023/04/22 12:09:53;;;;;;;4.55;2.70;;;;;;;;;;5004177;28;20481;-78
2023/04/22 12:12:23;;;;;;;5.80;2.67;;;;;;;;;;5008925;28;20029;-78
2023/04/22 12:14:49;;;;;;;3.70;2.75;;;;;;;;;;5011197;28;20030;-78
2023/04/22 12:17:18;;;;;;;2.97;2.10;;;;;;;;;;5006014;28;20091;-77
2023/04/22 12:19:47;;;;;;;5.15;2.70;;;;;;;;;;5003924;28;20034;-77
2023/04/22 12:22:22;;;;;;;3.53;2.33;;;;;;;;;;5008920;28;20659;-75
2023/04/22 12:24:49;;;;;;;4.18;2.70;;;;;;;;;;5013442;28;20034;-80
2023/04/22 12:27:15;;;;;;;4.35;2.60;;;;;;;;;;5005201;28;20539;-73
2023/04/22 12:29:49;;;;;;;3.88;2.28;;;;;;;;;;5010495;28;20037;-77
2023/04/22 12:32:15;;;;;;;4.75;2.97;;;;;;;;;;5010144;28;20033;-77
2023/04/22 12:34:41;;;;;;;3.63;2.30;;;;;;;;;;5004863;28;20474;-76
2023/04/22 12:37:07;;;;;;;3.70;2.53;;;;;;;;;;5015657;28;20049;-80
2023/04/22 12:39:33;;;;;;;3.17;2.53;;;;;;;;;;5010240;28;20026;-83
2023/04/22 12:41:59;;;;;;;4.30;2.45;;;;;;;;;;5007166;28;20473;-77
2023/04/22 12:44:25;;;;;;;4.40;2.00;;;;;;;;;;5020989;28;20563;-76
2023/04/22 12:46:51;;;;;;;3.30;2.55;;;;;;;;;;5022448;28;20426;-76
2023/04/22 12:49:17;;;;;;;3.55;2.40;;;;;;;;;;5021413;28;20030;-76
2023/04/22 12:51:43;;;;;;;6.15;2.75;;;;;;;;;;5022121;28;20045;-77
2023/04/22 12:54:09;;;;;;;5.28;2.22;;;;;;;;;;5022583;28;20033;-75
2023/04/22 12:56:35;;;;;;;5.32;2.53;;;;;;;;;;5020425;28;20022;-75
2023/04/22 12:59:25;;;;;;;9.57;4.03;;;;;;;;;;5018671;28;20079;-75
2023/04/22 13:01:51;;;;;;;5.68;3.22;;;;;;;;;;5004268;28;20038;-73
2023/04/22 13:04:18;;;;;;;6.40;4.05;;;;;;;;;;5019929;28;20133;-76
2023/04/22 13:06:44;;;;;;;6.35;4.38;;;;;;;;;;5013730;28;20029;-77
2023/04/22 13:09:10;;;;;;;7.82;4.03;;;;;;;;;;5007821;28;20052;-76
2023/04/22 13:11:37;;;;;;;6.50;4.55;;;;;;;;;;5018037;28;20201;-76
2023/04/22 13:14:03;;;;;;;11.52;4.65;;;;;;;;;;5015834;28;20045;-75
2023/04/22 13:16:29;;;;;;;8.40;3.67;;;;;;;;;;5019315;28;20052;-75
2023/04/22 13:18:55;;;;;;;9.23;4.65;;;;;;;;;;5011885;28;20672;-76
2023/04/22 13:21:21;;;;;;;6.75;4.47;;;;;;;;;;5015438;28;20064;-75
2023/04/22 13:23:47;;;;;;;11.00;5.90;;;;;;;;;;5014589;28;20144;-75
2023/04/22 13:26:13;;;;;;;14.90;7.75;;;;;;;;;;5014242;28;20482;-76
2023/04/22 13:28:39;;;;;;;11.88;7.38;;;;;;;;;;5014836;28;20041;-76
2023/04/22 13:31:05;;;;;;;21.80;12.45;;;;;;;;;;5012693;28;20029;-72
2023/04/22 13:33:31;;;;;;;21.77;12.68;;;;;;;;;;5015911;28;20022;-73
2023/04/22 13:35:57;;;;;;;24.95;13.77;;;;;;;;;;5019515;28;20507;-75
2023/04/22 13:38:23;;;;;;;26.52;14.93;;;;;;;;;;5016523;28;20071;-75
2023/04/22 13:40:48;;;;;;;35.72;18.48;;;;;;;;;;5014864;28;20064;-75
2023/04/22 13:43:15;;;;;;;34.50;18.17;;;;;;;;;;5019103;28;20036;-75
2023/04/22 13:45:41;;;;;;;28.77;16.05;;;;;;;;;;5015642;28;20112;-75
2023/04/22 13:48:07;;;;;;;24.88;14.27;;;;;;;;;;5014474;28;20053;-75
2023/04/22 13:50:33;;;;;;;23.77;12.63;;;;;;;;;;5012239;28;20044;-74
2023/04/22 13:52:59;;;;;;;25.13;11.63;;;;;;;;;;5022153;28;20029;-75
2023/04/22 13:55:25;;;;;;;20.75;10.38;;;;;;;;;;5015109;28;20024;-75
2023/04/22 13:57:51;;;;;;;24.35;11.00;;;;;;;;;;5016533;28;20017;-75
2023/04/22 14:00:17;;;;;;;13.18;7.68;;;;;;;;;;5016038;28;20550;-75
2023/04/22 14:02:44;;;;;;;11.60;6.57;;;;;;;;;;5018140;28;20017;-74
2023/04/22 14:05:10;;;;;;;12.10;7.38;;;;;;;;;;5014542;28;20095;-75
2023/04/22 14:07:36;;;;;;;13.35;6.15;;;;;;;;;;5016227;28;20393;-75
2023/04/22 14:10:02;;;;;;;11.02;5.90;;;;;;;;;;5014574;28;20026;-75
2023/04/22 14:12:28;;;;;;;9.75;5.32;;;;;;;;;;5013668;28;20515;-75
2023/04/22 14:14:54;;;;;;;10.75;5.55;;;;;;;;;;5016767;28;20017;-75
2023/04/22 14:17:21;;;;;;;8.35;4.85;;;;;;;;;;5013883;28;20417;-76
2023/04/22 14:19:48;;;;;;;7.93;5.03;;;;;;;;;;5016899;28;20396;-75
2023/04/22 14:22:14;;;;;;;8.80;4.80;;;;;;;;;;5011162;28;20113;-76
2023/04/22 14:24:40;;;;;;;7.38;4.35;;;;;;;;;;5017148;28;20030;-76
2023/04/22 14:27:06;;;;;;;6.90;4.30;;;;;;;;;;5021588;28;20029;-76
2023/04/22 14:29:32;;;;;;;9.55;5.03;;;;;;;;;;5014189;28;20034;-75
2023/04/22 14:31:58;;;;;;;7.28;4.22;;;;;;;;;;5015981;28;20034;-75
2023/04/22 14:34:25;;;;;;;5.68;3.85;;;;;;;;;;5023252;28;20061;-74
2023/04/22 14:36:51;;;;;;;6.32;4.15;;;;;;;;;;5012860;28;20021;-75
2023/04/22 14:39:17;;;;;;;8.13;4.05;;;;;;;;;;5005461;28;20029;-74